Time;durP1;ratioP1;P1;durP2;ratioP2;P2;SDS_P1;SDS_P2;PMS_P1;PMS_P2;Temp;Humidity;BMP_temperature;BMP_pressure;BME280_temperature;BME280_humidity;BME280_pressure;Samples;Min_cycle;Max_cycle;Signal;HPM_P1;HPM_P2
2023/07/11 00:02:15;;;;;;;7.43;2.38;;;17.80;99.90;;;;;;4955019;28;20050;-72
2023/07/11 00:04:41;;;;;;;6.10;2.20;;;17.80;99.90;;;;;;4953845;29;20122;-72
2023/07/11 00:07:07;;;;;;;7.22;2.60;;;17.70;99.90;;;;;;4953763;29;20519;-72
2023/07/11 00:09:32;;;;;;;6.72;2.28;;;17.70;99.90;;;;;;4954846;29;20059;-72
2023/07/11 00:11:58;;;;;;;7.47;2.30;;;17.70;99.90;;;;;;4954923;29;20093;-73
2023/07/11 00:14:24;;;;;;;7.57;2.35;;;17.70;99.90;;;;;;4954848;29;20043;-72
2023/07/11 00:16:50;;;;;;;7.43;2.50;;;17.70;99.90;;;;;;4954834;29;20070;-73
2023/07/11 00:19:19;;;;;;;8.05;2.22;;;17.70;99.90;;;;;;4955223;28;20043;-73
2023/07/11 00:21:46;;;;;;;6.80;2.20;;;17.70;99.90;;;;;;4953927;29;20105;-72
2023/07/11 00:24:12;;;;;;;6.90;2.10;;;17.70;99.90;;;;;;4954905;28;20129;-72
2023/07/11 00:26:38;;;;;;;7.95;2.17;;;17.70;99.90;;;;;;4954653;29;20043;-72
2023/07/11 00:29:16;;;;;;;8.18;2.10;;;17.70;99.90;;;;;;4955185;28;20039;-72
2023/07/11 00:31:42;;;;;;;6.30;2.03;;;17.70;99.90;;;;;;4955081;29;20043;-73
2023/07/11 00:34:08;;;;;;;7.60;2.25;;;17.60;99.90;;;;;;4954990;29;20551;-72
2023/07/11 00:36:37;;;;;;;7.55;2.05;;;17.60;99.90;;;;;;4954994;29;20050;-71
2023/07/11 00:39:04;;;;;;;8.40;2.42;;;17.70;99.90;;;;;;4953518;29;20516;-72
2023/07/11 00:41:31;;;;;;;7.43;2.00;;;17.60;99.90;;;;;;4953481;29;20035;-72
2023/07/11 00:43:57;;;;;;;5.43;2.10;;;17.60;99.90;;;;;;4953457;29;20044;-73
2023/07/11 00:46:23;;;;;;;9.98;2.22;;;17.50;99.90;;;;;;4956509;28;20043;-73
2023/07/11 00:48:57;;;;;;;6.43;2.03;;;17.60;99.90;;;;;;4958398;29;20047;-72
2023/07/11 00:51:24;;;;;;;7.68;2.20;;;17.60;99.90;;;;;;4957127;29;20046;-72
2023/07/11 00:53:50;;;;;;;7.20;1.90;;;17.70;99.90;;;;;;4956992;29;20046;-73
2023/07/11 00:56:24;;;;;;;7.00;2.03;;;17.70;99.90;;;;;;4958038;29;20055;-73
2023/07/11 00:58:51;;;;;;;6.70;2.05;;;17.70;99.90;;;;;;4958520;28;20047;-73
2023/07/11 01:01:18;;;;;;;7.15;1.98;;;17.70;99.90;;;;;;4958151;29;20047;-73
2023/07/11 01:03:45;;;;;;;6.60;2.10;;;17.80;99.90;;;;;;4958152;28;20043;-73
2023/07/11 01:06:18;;;;;;;6.38;2.00;;;17.70;99.90;;;;;;4957926;28;20043;-72
2023/07/11 01:08:46;;;;;;;7.75;2.17;;;17.70;99.90;;;;;;4956845;28;20354;-70
2023/07/11 01:11:13;;;;;;;6.53;2.17;;;17.70;99.90;;;;;;4958224;29;20047;-72
2023/07/11 01:13:38;;;;;;;10.55;2.20;;;17.70;99.90;;;;;;4956629;29;20039;-72
2023/07/11 01:16:04;;;;;;;7.30;2.17;;;17.70;99.90;;;;;;4957911;28;20130;-72
2023/07/11 01:18:30;;;;;;;7.05;2.10;;;17.70;99.90;;;;;;4957792;29;20089;-71
2023/07/11 01:20:57;;;;;;;5.70;2.00;;;17.70;99.90;;;;;;4956806;29;20047;-72
2023/07/11 01:23:23;;;;;;;5.43;1.80;;;17.70;99.90;;;;;;4957758;29;20042;-72
2023/07/11 01:26:06;;;;;;;7.50;2.10;;;17.60;99.90;;;;;;4957633;29;20051;-72
2023/07/11 01:28:32;;;;;;;4.97;1.80;;;17.60;99.90;;;;;;4956801;29;20069;-72
2023/07/11 01:30:57;;;;;;;6.82;2.00;;;17.50;99.90;;;;;;4957560;28;20596;-72
2023/07/11 01:33:25;;;;;;;7.55;2.30;;;17.50;99.90;;;;;;4957701;28;20175;-72
2023/07/11 01:35:54;;;;;;;7.78;2.20;;;17.60;99.90;;;;;;4956270;29;20043;-72
2023/07/11 01:38:24;;;;;;;6.50;2.10;;;17.60;99.90;;;;;;4957760;29;20038;-72
2023/07/11 01:40:50;;;;;;;5.53;2.30;;;17.60;99.90;;;;;;4957758;29;20514;-73
2023/07/11 01:43:18;;;;;;;8.27;2.50;;;17.60;99.90;;;;;;4957420;29;20043;-72
2023/07/11 01:45:44;;;;;;;7.22;2.33;;;17.60;99.90;;;;;;4956391;29;20395;-72
2023/07/11 01:48:10;;;;;;;7.60;2.40;;;17.50;99.90;;;;;;4957173;29;20043;-73
2023/07/11 01:50:36;;;;;;;6.90;2.50;;;17.50;99.90;;;;;;4957284;29;20122;-72
2023/07/11 01:53:02;;;;;;;8.02;2.50;;;17.50;99.90;;;;;;4957578;28;20070;-72
2023/07/11 01:55:28;;;;;;;7.25;2.58;;;17.50;99.90;;;;;;4957194;28;20082;-72
2023/07/11 01:57:54;;;;;;;8.65;2.80;;;17.50;99.90;;;;;;4956231;28;20061;-71
2023/07/11 02:00:20;;;;;;;8.95;2.80;;;17.60;99.90;;;;;;4957100;29;20058;-72
2023/07/11 02:02:45;;;;;;;9.57;3.05;;;17.60;99.90;;;;;;4957060;28;20047;-72
2023/07/11 02:05:13;;;;;;;7.72;2.80;;;17.60;99.90;;;;;;4955716;29;20130;-72
2023/07/11 02:07:39;;;;;;;7.63;2.63;;;17.60;99.90;;;;;;4955723;29;20047;-73
2023/07/11 02:10:05;;;;;;;8.23;2.80;;;17.60;99.90;;;;;;4956887;28;20186;-73
2023/07/11 02:12:31;;;;;;;7.88;2.83;;;17.70;99.90;;;;;;4956195;29;20121;-72
2023/07/11 02:14:57;;;;;;;8.10;3.03;;;17.70;99.90;;;;;;4956789;29;20118;-73
2023/07/11 02:17:23;;;;;;;10.35;3.03;;;17.70;99.90;;;;;;4957029;29;20043;-72
2023/07/11 02:19:48;;;;;;;8.18;2.90;;;17.70;99.90;;;;;;4957086;29;20674;-73
2023/07/11 02:22:14;;;;;;;9.70;3.00;;;17.70;99.90;;;;;;4957029;29;20098;-72
2023/07/11 02:24:40;;;;;;;10.88;3.33;;;17.70;99.90;;;;;;4955383;29;20047;-72
2023/07/11 02:27:06;;;;;;;9.73;3.33;;;17.60;99.90;;;;;;4956908;29;20043;-73
2023/07/11 02:29:33;;;;;;;8.95;3.10;;;17.60;99.90;;;;;;4956870;28;20063;-72
2023/07/11 02:31:58;;;;;;;10.32;3.30;;;17.60;99.90;;;;;;4955669;29;20039;-73
2023/07/11 02:34:24;;;;;;;8.10;3.17;;;17.50;99.90;;;;;;4955610;29;20054;-73
2023/07/11 02:36:50;;;;;;;8.68;3.40;;;17.60;99.90;;;;;;4956676;29;20114;-73
2023/07/11 02:39:16;;;;;;;11.18;3.33;;;17.60;99.90;;;;;;4956647;29;20043;-73
2023/07/11 02:41:42;;;;;;;7.55;3.28;;;17.70;99.90;;;;;;4956616;29;20055;-73
2023/07/11 02:44:08;;;;;;;10.35;3.63;;;17.80;99.90;;;;;;4955254;29;20054;-73
2023/07/11 02:46:35;;;;;;;7.63;3.53;;;17.80;99.90;;;;;;4956451;28;20043;-73
2023/07/11 02:49:01;;;;;;;10.90;3.28;;;17.80;99.90;;;;;;4956157;29;20122;-73
2023/07/11 02:51:27;;;;;;;8.48;3.40;;;17.80;99.90;;;;;;4939016;29;20126;-73
2023/07/11 02:53:52;;;;;;;7.70;3.50;;;17.80;99.90;;;;;;4956429;29;20089;-73
2023/07/11 02:56:19;;;;;;;7.97;3.25;;;17.80;99.90;;;;;;4956383;29;20075;-73
2023/07/11 02:58:46;;;;;;;8.95;3.33;;;17.80;99.90;;;;;;4956028;28;20074;-73
2023/07/11 03:01:13;;;;;;;8.98;3.40;;;17.80;99.90;;;;;;4955039;29;20051;-72
2023/07/11 03:03:39;;;;;;;8.65;3.05;;;17.80;99.90;;;;;;4956227;29;20122;-73
2023/07/11 03:06:05;;;;;;;10.50;3.58;;;17.90;99.90;;;;;;4954990;29;20183;-72
2023/07/11 03:08:32;;;;;;;9.43;3.35;;;17.90;99.90;;;;;;4955600;28;20035;-71
2023/07/11 03:10:59;;;;;;;8.85;3.38;;;17.90;99.90;;;;;;4956002;29;20039;-72
2023/07/11 03:13:25;;;;;;;9.95;3.60;;;17.90;99.90;;;;;;4954921;29;20035;-72
2023/07/11 03:15:52;;;;;;;9.95;3.30;;;17.90;99.90;;;;;;4954805;29;20122;-73
2023/07/11 03:18:18;;;;;;;8.90;3.40;;;17.90;99.90;;;;;;4955625;29;20039;-72
2023/07/11 03:20:44;;;;;;;9.77;3.55;;;17.90;99.90;;;;;;4954434;29;20046;-72
2023/07/11 03:23:13;;;;;;;8.05;3.33;;;17.90;99.90;;;;;;4955594;29;20047;-73
2023/07/11 03:25:40;;;;;;;8.02;3.30;;;18.00;99.90;;;;;;4955550;29;20046;-72
2023/07/11 03:28:06;;;;;;;8.82;3.40;;;18.00;99.90;;;;;;4938379;29;20039;-72
2023/07/11 03:30:34;;;;;;;8.48;3.33;;;17.90;99.90;;;;;;4955389;29;20039;-72
2023/07/11 03:33:00;;;;;;;9.05;3.30;;;18.00;99.90;;;;;;4955727;29;20432;-72
2023/07/11 03:35:26;;;;;;;9.10;3.70;;;18.00;99.90;;;;;;4938375;29;20126;-72
2023/07/11 03:37:52;;;;;;;8.45;3.42;;;18.00;99.90;;;;;;4955344;29;20094;-72
2023/07/11 03:40:18;;;;;;;8.90;3.58;;;18.10;99.90;;;;;;4955356;28;20039;-72
2023/07/11 03:42:44;;;;;;;10.30;3.65;;;18.10;99.90;;;;;;4955633;28;20487;-72
2023/07/11 03:45:10;;;;;;;12.48;3.70;;;18.10;99.90;;;;;;4955211;29;20142;-73
2023/07/11 03:47:36;;;;;;;8.80;3.45;;;18.10;99.90;;;;;;4955453;29;20035;-72
2023/07/11 03:50:01;;;;;;;8.35;3.50;;;18.10;99.90;;;;;;4955187;29;20119;-74
2023/07/11 03:52:27;;;;;;;9.60;3.35;;;18.10;99.90;;;;;;4954080;29;20131;-72
2023/07/11 03:54:53;;;;;;;9.00;3.53;;;18.10;99.90;;;;;;4954279;29;20042;-72
2023/07/11 03:57:19;;;;;;;10.88;3.38;;;18.10;99.90;;;;;;4955408;29;20389;-71
2023/07/11 03:59:45;;;;;;;9.90;3.58;;;18.10;99.90;;;;;;4955037;29;20043;-72
2023/07/11 04:02:11;;;;;;;8.70;3.40;;;18.10;99.90;;;;;;4955043;29;20043;-72
2023/07/11 04:04:36;;;;;;;7.57;3.60;;;18.20;99.90;;;;;;4955291;29;20043;-72
2023/07/11 04:07:04;;;;;;;7.78;3.33;;;18.20;99.90;;;;;;4953901;29;20124;-72
2023/07/11 04:09:30;;;;;;;6.88;3.35;;;18.20;99.90;;;;;;4953764;29;20074;-72
2023/07/11 04:11:55;;;;;;;8.25;3.70;;;18.20;99.90;;;;;;4953957;29;20415;-73
2023/07/11 04:14:22;;;;;;;8.48;3.53;;;18.30;99.90;;;;;;4955284;28;20043;-73
2023/07/11 04:16:47;;;;;;;8.35;3.53;;;18.30;99.90;;;;;;4955124;28;20047;-73
2023/07/11 04:19:13;;;;;;;8.10;3.33;;;18.20;99.90;;;;;;4955198;29;20146;-73
2023/07/11 04:21:39;;;;;;;9.35;3.80;;;18.30;99.90;;;;;;4956181;28;20535;-73
2023/07/11 04:24:05;;;;;;;11.35;3.65;;;18.30;99.90;;;;;;4958847;29;20126;-73
2023/07/11 04:26:30;;;;;;;8.07;3.22;;;18.30;99.90;;;;;;4958946;29;20039;-73
2023/07/11 04:28:56;;;;;;;8.88;3.45;;;18.30;99.90;;;;;;4958853;29;20036;-72
2023/07/11 04:31:22;;;;;;;8.88;3.65;;;18.40;99.90;;;;;;4941390;29;20051;-72
2023/07/11 04:33:48;;;;;;;9.13;3.58;;;18.50;99.90;;;;;;4958963;29;20078;-72
2023/07/11 04:36:15;;;;;;;10.02;3.80;;;18.40;99.90;;;;;;4958931;29;20039;-73
2023/07/11 04:38:42;;;;;;;10.45;4.03;;;18.40;99.90;;;;;;4958520;29;20078;-73
2023/07/11 04:41:09;;;;;;;8.68;3.63;;;18.40;99.90;;;;;;4958539;29;20043;-72
2023/07/11 04:43:34;;;;;;;12.13;3.72;;;18.50;99.90;;;;;;4958816;29;20035;-73
2023/07/11 04:46:05;;;;;;;8.13;3.63;;;18.50;99.90;;;;;;4957387;29;20054;-72
2023/07/11 04:48:35;;;;;;;7.95;3.65;;;18.60;99.90;;;;;;4957545;29;20050;-73
2023/07/11 04:51:04;;;;;;;9.38;3.40;;;18.60;99.90;;;;;;4958370;29;20121;-73
2023/07/11 04:53:31;;;;;;;8.43;3.40;;;18.70;99.90;;;;;;4958570;29;20499;-72
2023/07/11 04:56:02;;;;;;;10.15;4.13;;;18.70;99.90;;;;;;4958612;29;20050;-73
2023/07/11 04:58:29;;;;;;;7.55;3.40;;;18.80;99.90;;;;;;4958516;29;20043;-72
2023/07/11 05:01:03;;;;;;;8.90;3.75;;;18.80;99.90;;;;;;4957278;29;20098;-72
2023/07/11 05:03:29;;;;;;;7.55;3.40;;;18.90;99.90;;;;;;4956983;29;20047;-73
2023/07/11 05:05:55;;;;;;;9.35;3.50;;;19.00;99.90;;;;;;4958324;29;20046;-73
2023/07/11 05:08:21;;;;;;;10.15;3.55;;;19.30;99.90;;;;;;4957793;29;20054;-74
2023/07/11 05:10:59;;;;;;;9.88;3.80;;;19.60;99.90;;;;;;4957785;28;20055;-72
2023/07/11 05:13:25;;;;;;;11.52;3.88;;;19.70;99.90;;;;;;4973044;28;20043;-72
2023/07/11 05:15:51;;;;;;;8.00;3.60;;;19.80;99.90;;;;;;4956889;29;20062;-72
2023/07/11 05:18:18;;;;;;;10.35;3.92;;;19.70;99.90;;;;;;4958150;29;20050;-73
2023/07/11 05:20:51;;;;;;;8.38;3.85;;;19.80;99.90;;;;;;4958067;29;20050;-72
2023/07/11 05:23:17;;;;;;;9.93;3.90;;;19.80;99.90;;;;;;4956655;29;20122;-73
2023/07/11 05:25:43;;;;;;;9.95;3.95;;;20.20;99.90;;;;;;4957726;29;20131;-73
2023/07/11 05:28:09;;;;;;;9.32;3.85;;;20.60;99.90;;;;;;4957837;29;20043;-76
2023/07/11 05:30:37;;;;;;;8.63;4.00;;;21.00;99.90;;;;;;4957981;29;20049;-75
2023/07/11 05:33:03;;;;;;;10.15;3.83;;;21.40;99.90;;;;;;4957637;28;20483;-75
2023/07/11 05:35:29;;;;;;;8.77;3.83;;;21.40;99.90;;;;;;4957539;28;20043;-75
2023/07/11 05:37:55;;;;;;;8.88;3.38;;;21.50;99.90;;;;;;4940812;29;20050;-75
2023/07/11 05:40:20;;;;;;;9.57;3.50;;;21.40;99.90;;;;;;4956179;29;20514;-75
2023/07/11 05:42:46;;;;;;;9.10;3.20;;;21.60;99.90;;;;;;4957787;29;20081;-75
2023/07/11 05:45:12;;;;;;;8.15;3.17;;;21.70;99.90;;;;;;4957482;28;20492;-74
2023/07/11 05:47:38;;;;;;;8.32;3.13;;;21.80;99.90;;;;;;4957605;28;20039;-74
2023/07/11 05:50:04;;;;;;;8.32;3.20;;;22.00;99.90;;;;;;4940418;29;20089;-75
2023/07/11 05:52:29;;;;;;;9.63;3.38;;;22.30;99.90;;;;;;4956388;29;20047;-75
2023/07/11 05:54:55;;;;;;;7.47;3.20;;;22.40;99.90;;;;;;4957535;29;20036;-76
2023/07/11 05:57:21;;;;;;;8.52;3.40;;;22.60;99.90;;;;;;4957137;29;20063;-76
2023/07/11 05:59:47;;;;;;;9.52;3.42;;;23.00;99.90;;;;;;4957171;29;20152;-75
2023/07/11 06:02:12;;;;;;;7.90;2.95;;;23.50;99.90;;;;;;4957199;28;20046;-75
2023/07/11 06:04:38;;;;;;;9.07;3.30;;;23.70;99.90;;;;;;4939920;29;20047;-74
2023/07/11 06:07:04;;;;;;;8.75;3.42;;;23.80;99.40;;;;;;4955708;29;20518;-75
2023/07/11 06:09:30;;;;;;;8.95;3.22;;;23.90;99.10;;;;;;4956849;28;20098;-75
2023/07/11 06:11:55;;;;;;;7.22;2.78;;;23.80;99.10;;;;;;4957177;29;20058;-75
2023/07/11 06:14:23;;;;;;;7.10;3.20;;;24.10;99.10;;;;;;4957134;29;20062;-76
2023/07/11 06:16:49;;;;;;;8.45;3.05;;;24.40;97.90;;;;;;4955601;29;20051;-75
2023/07/11 06:19:14;;;;;;;8.32;2.90;;;24.50;98.20;;;;;;4957108;29;20054;-75
2023/07/11 06:21:40;;;;;;;8.73;3.10;;;24.60;97.40;;;;;;4956661;29;20047;-75
2023/07/11 06:24:06;;;;;;;9.77;3.30;;;24.60;97.10;;;;;;4955903;29;20039;-74
2023/07/11 06:26:32;;;;;;;7.18;3.25;;;24.70;97.30;;;;;;4956844;29;20487;-76
2023/07/11 06:28:57;;;;;;;9.20;3.30;;;24.60;96.50;;;;;;4956857;28;20547;-75
2023/07/11 06:31:25;;;;;;;7.25;3.00;;;24.30;95.80;;;;;;4956906;28;20051;-75
2023/07/11 06:33:51;;;;;;;7.40;2.90;;;24.10;97.50;;;;;;4956783;28;20043;-75
2023/07/11 06:36:16;;;;;;;7.82;3.22;;;24.30;97.00;;;;;;4956793;29;20541;-75
2023/07/11 06:38:42;;;;;;;8.82;3.08;;;24.50;97.30;;;;;;4946016;28;20126;-75
2023/07/11 06:41:08;;;;;;;6.97;2.92;;;24.50;96.80;;;;;;4982995;28;20070;-75
2023/07/11 06:43:34;;;;;;;7.65;3.20;;;24.20;96.80;;;;;;4975237;28;20042;-75
2023/07/11 06:46:01;;;;;;;9.88;3.10;;;24.30;97.00;;;;;;4975549;28;20475;-75
2023/07/11 06:48:30;;;;;;;7.35;2.85;;;24.20;97.20;;;;;;4975509;28;20050;-75
2023/07/11 06:50:58;;;;;;;7.38;2.90;;;24.30;97.30;;;;;;4974314;28;20050;-75
2023/07/11 06:53:27;;;;;;;7.18;3.10;;;24.30;96.70;;;;;;4975737;28;20483;-74
2023/07/11 06:55:53;;;;;;;8.00;3.00;;;24.20;96.70;;;;;;4975963;28;20074;-74
2023/07/11 06:58:20;;;;;;;8.38;3.00;;;24.20;97.30;;;;;;4975856;28;20046;-74
2023/07/11 07:00:58;;;;;;;8.70;2.90;;;24.10;97.10;;;;;;4976249;28;20506;-74
2023/07/11 07:03:24;;;;;;;8.82;3.00;;;23.90;97.70;;;;;;4975910;28;20049;-75
2023/07/11 07:05:56;;;;;;;7.60;3.10;;;23.90;97.80;;;;;;4974468;28;20105;-75
2023/07/11 07:08:23;;;;;;;7.97;3.03;;;23.90;98.20;;;;;;4975795;28;20053;-74
2023/07/11 07:10:50;;;;;;;7.18;3.10;;;23.90;97.80;;;;;;4973915;28;20090;-75
2023/07/11 07:13:17;;;;;;;6.38;3.03;;;23.90;98.00;;;;;;4975452;28;20464;-73
2023/07/11 07:15:48;;;;;;;7.05;2.80;;;23.90;98.10;;;;;;4973464;28;20087;-74
2023/07/11 07:18:14;;;;;;;10.20;2.90;;;24.00;98.00;;;;;;4975137;28;20105;-75
2023/07/11 07:20:40;;;;;;;7.50;3.00;;;24.40;98.60;;;;;;4975318;28;20050;-74
2023/07/11 07:23:09;;;;;;;7.75;2.85;;;24.80;98.80;;;;;;4974066;28;20042;-74
2023/07/11 07:25:36;;;;;;;7.70;3.00;;;25.30;98.50;;;;;;4975049;28;20047;-73
2023/07/11 07:28:03;;;;;;;6.60;2.88;;;25.40;97.30;;;;;;4974944;28;20045;-74
2023/07/11 07:30:29;;;;;;;8.55;2.90;;;25.30;96.80;;;;;;4974826;28;20077;-74
2023/07/11 07:32:54;;;;;;;7.35;3.00;;;25.30;96.80;;;;;;4974806;28;20070;-74
2023/07/11 07:35:20;;;;;;;8.95;3.10;;;25.20;96.60;;;;;;4957251;28;20077;-75
2023/07/11 07:37:47;;;;;;;7.60;2.90;;;25.20;97.30;;;;;;4973482;28;20046;-74
2023/07/11 07:40:14;;;;;;;7.45;2.90;;;25.50;97.30;;;;;;4974488;28;20050;-74
2023/07/11 07:42:39;;;;;;;7.53;3.10;;;25.50;96.60;;;;;;4974668;28;20085;-74
2023/07/11 07:45:06;;;;;;;8.38;3.10;;;25.70;96.80;;;;;;4974833;28;20038;-74
2023/07/11 07:47:31;;;;;;;7.72;2.70;;;25.80;96.60;;;;;;4973429;28;20047;-74
2023/07/11 07:49:57;;;;;;;6.75;2.78;;;25.80;96.80;;;;;;4974475;28;20104;-75
2023/07/11 07:52:23;;;;;;;6.65;2.65;;;25.90;96.50;;;;;;4973575;28;20497;-76
2023/07/11 07:54:49;;;;;;;7.20;2.80;;;26.00;96.40;;;;;;4974427;28;20053;-75
2023/07/11 07:57:15;;;;;;;8.43;2.88;;;26.10;96.80;;;;;;4974648;28;20042;-75
2023/07/11 07:59:41;;;;;;;5.88;2.50;;;26.40;95.70;;;;;;4973584;28;20050;-74
2023/07/11 08:02:09;;;;;;;6.47;2.60;;;26.50;95.90;;;;;;4973225;28;20042;-75
2023/07/11 08:04:35;;;;;;;8.23;2.53;;;26.70;95.30;;;;;;4974372;28;20042;-75
2023/07/11 08:07:00;;;;;;;6.43;2.63;;;26.70;93.80;;;;;;4974532;28;20058;-75
2023/07/11 08:09:27;;;;;;;7.25;2.42;;;26.70;94.00;;;;;;4974223;28;20511;-75
2023/07/11 08:11:52;;;;;;;9.90;2.58;;;27.00;94.70;;;;;;4974607;28;20118;-76
2023/07/11 08:14:18;;;;;;;8.00;2.50;;;27.30;93.70;;;;;;4974304;28;20077;-75
2023/07/11 08:16:44;;;;;;;6.15;2.67;;;27.50;93.20;;;;;;4972962;28;20043;-75
2023/07/11 08:19:10;;;;;;;5.75;2.30;;;27.80;93.30;;;;;;4974182;28;20085;-75
2023/07/11 08:21:36;;;;;;;6.63;2.55;;;28.20;92.90;;;;;;4974070;28;20093;-76
2023/07/11 08:24:04;;;;;;;7.22;2.55;;;28.40;91.20;;;;;;4974441;28;20069;-76
2023/07/11 08:26:30;;;;;;;6.80;2.45;;;28.70;91.10;;;;;;4973050;28;20051;-75
2023/07/11 08:28:56;;;;;;;8.00;2.60;;;28.80;88.80;;;;;;4974413;28;20039;-76
2023/07/11 08:31:22;;;;;;;8.85;2.75;;;29.00;90.10;;;;;;4974356;28;20047;-76
2023/07/11 08:33:48;;;;;;;7.90;2.30;;;29.20;88.80;;;;;;4974339;28;20391;-75
2023/07/11 08:36:14;;;;;;;7.45;2.40;;;29.10;87.00;;;;;;4972811;28;20043;-75
2023/07/11 08:38:40;;;;;;;7.47;2.35;;;28.90;85.80;;;;;;4973007;28;20050;-75
2023/07/11 08:41:13;;;;;;;6.57;2.38;;;29.10;88.10;;;;;;4973148;28;20074;-75
2023/07/11 08:43:40;;;;;;;7.32;2.40;;;29.40;86.10;;;;;;4974209;28;20043;-75
2023/07/11 08:46:10;;;;;;;7.20;2.10;;;29.50;84.60;;;;;;4974169;28;20045;-75
2023/07/11 08:49:00;;;;;;;8.77;2.25;;;29.60;83.60;;;;;;4972757;28;20034;-76
2023/07/11 08:51:37;;;;;;;7.25;2.15;;;29.70;84.70;;;;;;4973846;28;20050;-75
2023/07/11 08:54:20;;;;;;;7.00;2.30;;;29.70;84.50;;;;;;4974195;28;20543;-74
2023/07/11 08:56:48;;;;;;;6.70;2.30;;;29.90;83.60;;;;;;4974151;28;20043;-75
2023/07/11 08:59:32;;;;;;;7.78;2.30;;;30.20;82.90;;;;;;4974203;28;20057;-75
2023/07/11 09:02:10;;;;;;;7.95;2.40;;;30.20;80.30;;;;;;4974134;28;20502;-75
2023/07/11 09:04:46;;;;;;;7.60;2.40;;;30.20;80.70;;;;;;4974122;28;20050;-75
2023/07/11 09:07:42;;;;;;;7.45;2.40;;;30.20;80.20;;;;;;4975068;28;20129;-75
2023/07/11 09:10:28;;;;;;;6.03;2.35;;;30.00;79.60;;;;;;4976124;28;20055;-74
2023/07/11 09:13:33;;;;;;;6.63;2.03;;;29.90;78.80;;;;;;4977573;28;20475;-75
2023/07/11 09:16:17;;;;;;;6.50;2.40;;;29.80;78.70;;;;;;4964400;28;20047;-75
2023/07/11 09:19:05;;;;;;;7.45;2.60;;;30.00;80.10;;;;;;4977560;28;20097;-76
2023/07/11 09:21:45;;;;;;;7.53;2.42;;;30.20;78.80;;;;;;4977416;28;20054;-75
2023/07/11 09:24:37;;;;;;;8.10;2.63;;;30.50;80.30;;;;;;4976016;28;20050;-75
2023/07/11 09:27:29;;;;;;;6.88;2.50;;;30.60;79.10;;;;;;4976926;28;20043;-75
2023/07/11 09:29:55;;;;;;;6.00;2.40;;;30.50;79.10;;;;;;4977408;28;20394;-75
2023/07/11 09:32:30;;;;;;;8.13;2.80;;;30.30;77.60;;;;;;4977051;28;20043;-75
2023/07/11 09:34:56;;;;;;;7.53;2.63;;;30.20;79.10;;;;;;4975985;28;20386;-75
2023/07/11 09:37:28;;;;;;;7.22;2.65;;;29.90;79.40;;;;;;4975716;28;20042;-75
2023/07/11 09:40:42;;;;;;;6.25;2.38;;;29.70;78.40;;;;;;4975939;28;20093;-75
2023/07/11 09:43:09;;;;;;;6.55;2.50;;;29.80;79.80;;;;;;4969044;28;20051;-75
2023/07/11 09:45:37;;;;;;;8.13;2.42;;;30.00;81.00;;;;;;4976763;28;20038;-75
2023/07/11 09:48:12;;;;;;;6.97;2.63;;;30.20;80.00;;;;;;4975531;28;20511;-76
2023/07/11 09:51:00;;;;;;;8.60;2.42;;;30.40;77.60;;;;;;4975650;28;20038;-75
2023/07/11 09:53:28;;;;;;;6.65;2.47;;;30.60;77.70;;;;;;4976557;28;20047;-76
2023/07/11 09:56:00;;;;;;;6.22;2.38;;;30.80;76.00;;;;;;4976669;28;20140;-76
2023/07/11 09:58:32;;;;;;;8.20;2.60;;;30.90;74.90;;;;;;4975614;28;20089;-74
2023/07/11 10:01:04;;;;;;;7.20;2.60;;;31.00;75.30;;;;;;4976421;28;20043;-74
2023/07/11 10:03:34;;;;;;;8.43;2.70;;;31.10;76.60;;;;;;4976760;28;20050;-75
2023/07/11 10:06:02;;;;;;;8.77;2.50;;;31.20;75.50;;;;;;4976395;28;20051;-76
2023/07/11 10:08:33;;;;;;;6.40;2.72;;;31.20;75.10;;;;;;4975370;28;20043;-75
2023/07/11 10:11:05;;;;;;;6.35;2.42;;;31.20;74.60;;;;;;4976163;28;20066;-75
2023/07/11 10:13:31;;;;;;;8.27;2.53;;;31.40;76.00;;;;;;4976449;28;20046;-75
2023/07/11 10:15:59;;;;;;;8.77;2.67;;;31.50;73.60;;;;;;4974976;28;20105;-74
2023/07/11 10:18:30;;;;;;;8.48;2.80;;;31.40;72.80;;;;;;4975362;28;20050;-75
2023/07/11 10:21:01;;;;;;;6.90;2.45;;;31.40;72.30;;;;;;4976388;28;20513;-76
2023/07/11 10:23:27;;;;;;;7.70;2.40;;;31.50;70.00;;;;;;4975971;28;20051;-75
2023/07/11 10:26:03;;;;;;;8.27;2.65;;;31.40;72.20;;;;;;4974985;28;20518;-74
2023/07/11 10:28:35;;;;;;;6.93;2.42;;;31.40;71.80;;;;;;4975950;28;20050;-74
2023/07/11 10:31:12;;;;;;;6.03;2.22;;;31.50;71.80;;;;;;4975849;28;20075;-74
2023/07/11 10:34:06;;;;;;;7.38;2.58;;;31.60;72.20;;;;;;4975909;28;20074;-75
2023/07/11 10:37:05;;;;;;;7.13;2.28;;;31.70;73.50;;;;;;4975344;28;20055;-74
2023/07/11 10:39:49;;;;;;;6.45;2.42;;;31.80;71.90;;;;;;4962865;28;20055;-75
2023/07/11 10:42:38;;;;;;;6.78;2.28;;;31.80;70.90;;;;;;4974824;28;20059;-75
2023/07/11 10:45:11;;;;;;;7.05;2.40;;;31.80;69.40;;;;;;4975980;28;20106;-74
2023/07/11 10:47:44;;;;;;;7.82;2.60;;;31.80;69.70;;;;;;4974328;28;20082;-75
2023/07/11 10:50:41;;;;;;;7.10;2.10;;;31.80;69.20;;;;;;4974486;28;20042;-76
2023/07/11 10:53:38;;;;;;;5.78;2.03;;;31.90;66.90;;;;;;4975517;28;20043;-76
2023/07/11 10:56:07;;;;;;;7.03;1.98;;;31.80;67.40;;;;;;4974716;28;20051;-75
2023/07/11 10:58:34;;;;;;;6.32;2.35;;;31.80;68.10;;;;;;4975746;28;20101;-75
2023/07/11 11:01:37;;;;;;;5.10;1.90;;;31.90;67.80;;;;;;4974401;28;20598;-75
2023/07/11 11:04:33;;;;;;;8.15;1.98;;;31.90;66.60;;;;;;4975629;28;20043;-76
2023/07/11 11:07:06;;;;;;;5.53;2.10;;;31.70;67.20;;;;;;4973947;28;20054;-76
2023/07/11 11:09:46;;;;;;;7.18;1.90;;;31.30;67.90;;;;;;4975045;28;20066;-75
2023/07/11 11:12:22;;;;;;;7.13;2.00;;;31.30;67.50;;;;;;4975491;28;20058;-76
2023/07/11 11:15:12;;;;;;;6.68;1.90;;;31.60;68.50;;;;;;4975143;28;20035;-75
2023/07/11 11:17:47;;;;;;;7.68;2.10;;;31.80;68.30;;;;;;4973532;28;20053;-75
2023/07/11 11:20:49;;;;;;;5.85;2.10;;;32.00;68.40;;;;;;4975312;28;20126;-73
2023/07/11 11:23:42;;;;;;;6.13;1.95;;;31.80;67.10;;;;;;4961910;28;20055;-75
2023/07/11 11:26:44;;;;;;;6.38;2.10;;;31.90;68.40;;;;;;4975268;28;20074;-75
2023/07/11 11:29:39;;;;;;;7.13;2.25;;;31.90;67.10;;;;;;4974970;28;20043;-75
2023/07/11 11:32:31;;;;;;;7.53;2.03;;;32.00;67.40;;;;;;4974790;28;20074;-74
2023/07/11 11:35:05;;;;;;;5.85;2.15;;;31.90;67.10;;;;;;4975192;28;20038;-75
2023/07/11 11:37:46;;;;;;;8.02;2.33;;;31.50;67.60;;;;;;4974905;28;20050;-75
2023/07/11 11:40:18;;;;;;;7.63;2.30;;;31.50;68.50;;;;;;4973520;28;20105;-75
2023/07/11 11:42:45;;;;;;;5.40;1.92;;;31.60;66.10;;;;;;4974925;28;20038;-76
2023/07/11 11:45:21;;;;;;;6.32;2.10;;;31.60;67.10;;;;;;4974631;28;20039;-75
2023/07/11 11:47:49;;;;;;;5.57;2.10;;;31.60;68.50;;;;;;4974860;28;20058;-75
2023/07/11 11:50:18;;;;;;;9.30;2.20;;;31.70;69.30;;;;;;4974498;28;20459;-74
2023/07/11 11:52:44;;;;;;;6.95;2.08;;;31.70;68.50;;;;;;4974522;28;20094;-74
2023/07/11 11:55:31;;;;;;;6.93;2.20;;;31.80;67.80;;;;;;4973281;28;20054;-74
2023/07/11 11:57:57;;;;;;;8.02;2.20;;;31.90;66.80;;;;;;4957101;28;20043;-75
2023/07/11 12:00:46;;;;;;;5.90;1.80;;;31.80;67.90;;;;;;4974671;28;20038;-74
2023/07/11 12:03:24;;;;;;;7.07;2.00;;;31.90;66.90;;;;;;4965172;28;20098;-75
2023/07/11 12:05:52;;;;;;;5.25;2.10;;;31.90;67.00;;;;;;4974661;28;20042;-75
2023/07/11 12:08:24;;;;;;;6.22;1.90;;;31.70;66.60;;;;;;4974546;28;20039;-76
2023/07/11 12:11:20;;;;;;;6.20;2.00;;;31.70;67.90;;;;;;4974092;28;20061;-76
2023/07/11 12:14:31;;;;;;;5.60;1.95;;;31.60;66.90;;;;;;4973133;28;20058;-75
2023/07/11 12:16:58;;;;;;;5.55;2.00;;;31.30;67.70;;;;;;4958620;28;20514;-75
2023/07/11 12:19:42;;;;;;;6.22;1.90;;;30.80;68.20;;;;;;4973243;28;20042;-76
2023/07/11 12:22:07;;;;;;;5.20;2.00;;;30.80;69.40;;;;;;4974147;28;20114;-75
2023/07/11 12:24:33;;;;;;;6.13;2.08;;;30.80;70.90;;;;;;4974455;28;20054;-75
2023/07/11 12:27:19;;;;;;;6.25;1.80;;;30.90;69.90;;;;;;4974308;28;20043;-75
2023/07/11 12:29:51;;;;;;;6.45;1.95;;;30.90;70.10;;;;;;4934108;28;20384;-75
2023/07/11 12:32:32;;;;;;;6.60;2.08;;;30.70;69.20;;;;;;4974394;28;20046;-75
2023/07/11 12:35:08;;;;;;;6.50;2.08;;;30.60;68.80;;;;;;4974120;28;20061;-76
2023/07/11 12:37:36;;;;;;;7.60;2.17;;;30.50;68.50;;;;;;4974240;28;20121;-75
2023/07/11 12:40:34;;;;;;;5.75;2.00;;;30.70;70.30;;;;;;4973925;28;20053;-76
2023/07/11 12:43:01;;;;;;;6.13;2.05;;;30.70;70.10;;;;;;4977048;28;20058;-76
2023/07/11 12:45:36;;;;;;;6.47;2.00;;;30.80;69.90;;;;;;4976794;28;20495;-75
2023/07/11 12:48:16;;;;;;;6.35;2.17;;;30.60;69.50;;;;;;4976563;28;20073;-75
2023/07/11 12:50:53;;;;;;;6.47;2.13;;;30.60;69.70;;;;;;4976854;28;20097;-75
2023/07/11 12:53:20;;;;;;;7.40;2.28;;;30.60;70.00;;;;;;4976431;28;20101;-75
2023/07/11 12:55:48;;;;;;;11.00;2.40;;;30.50;70.20;;;;;;4977941;28;20114;-74
2023/07/11 12:58:20;;;;;;;7.32;2.38;;;30.50;70.20;;;;;;4977875;28;20038;-74
2023/07/11 13:00:47;;;;;;;7.53;2.05;;;30.40;70.20;;;;;;4976701;28;20069;-74
2023/07/11 13:03:39;;;;;;;5.72;2.22;;;30.30;69.20;;;;;;4977863;28;20046;-74